sensor_id;sensor_type;location;lat;lon;timestamp;P1;durP1;ratioP1;P2;durP2;ratioP2
4359;SDS011;2193;47.980;7.660;2022-10-22T00:01:09;1.97;;;1.30;;
4359;SDS011;2193;47.980;7.660;2022-10-22T00:03:34;8.27;;;1.97;;
4359;SDS011;2193;47.980;7.660;2022-10-22T00:06:00;1.60;;;1.50;;
4359;SDS011;2193;47.980;7.660;2022-10-22T00:08:25;10.07;;;2.10;;
4359;SDS011;2193;47.980;7.660;2022-10-22T00:10:50;7.87;;;2.20;;
4359;SDS011;2193;47.980;7.660;2022-10-22T00:13:16;1.60;;;1.50;;
4359;SDS011;2193;47.980;7.660;2022-10-22T00:15:42;3.37;;;1.50;;
4359;SDS011;2193;47.980;7.660;2022-10-22T00:18:07;2.87;;;2.00;;
4359;SDS011;2193;47.980;7.660;2022-10-22T00:20:32;7.70;;;2.00;;
4359;SDS011;2193;47.980;7.660;2022-10-22T00:22:57;7.23;;;2.47;;
4359;SDS011;2193;47.980;7.660;2022-10-22T00:25:23;7.80;;;2.30;;
4359;SDS011;2193;47.980;7.660;2022-10-22T00:27:48;5.37;;;2.27;;
4359;SDS011;2193;47.980;7.660;2022-10-22T00:30:13;3.87;;;2.50;;
4359;SDS011;2193;47.980;7.660;2022-10-22T00:32:39;6.47;;;3.10;;
4359;SDS011;2193;47.980;7.660;2022-10-22T00:35:04;5.80;;;2.70;;
4359;SDS011;2193;47.980;7.660;2022-10-22T00:37:29;4.73;;;2.90;;
4359;SDS011;2193;47.980;7.660;2022-10-22T00:39:55;14.00;;;3.90;;
4359;SDS011;2193;47.980;7.660;2022-10-22T00:42:21;5.47;;;3.97;;
4359;SDS011;2193;47.980;7.660;2022-10-22T00:47:32;4.73;;;3.40;;
4359;SDS011;2193;47.980;7.660;2022-10-22T00:49:58;8.10;;;3.73;;
4359;SDS011;2193;47.980;7.660;2022-10-22T00:52:24;7.20;;;4.10;;
4359;SDS011;2193;47.980;7.660;2022-10-22T00:54:49;12.23;;;3.60;;
4359;SDS011;2193;47.980;7.660;2022-10-22T00:57:15;11.47;;;4.10;;
4359;SDS011;2193;47.980;7.660;2022-10-22T00:59:41;6.57;;;4.87;;
4359;SDS011;2193;47.980;7.660;2022-10-22T01:02:06;7.90;;;5.63;;
4359;SDS011;2193;47.980;7.660;2022-10-22T01:04:32;7.23;;;5.30;;
4359;SDS011;2193;47.980;7.660;2022-10-22T01:06:57;8.13;;;5.77;;
4359;SDS011;2193;47.980;7.660;2022-10-22T01:11:57;6.40;;;5.20;;
4359;SDS011;2193;47.980;7.660;2022-10-22T01:14:34;7.60;;;4.40;;
4359;SDS011;2193;47.980;7.660;2022-10-22T01:17:03;7.63;;;4.50;;
4359;SDS011;2193;47.980;7.660;2022-10-22T01:19:41;5.00;;;3.70;;
4359;SDS011;2193;47.980;7.660;2022-10-22T01:22:15;7.20;;;4.37;;
4359;SDS011;2193;47.980;7.660;2022-10-22T01:29:42;10.33;;;4.00;;
4359;SDS011;2193;47.980;7.660;2022-10-22T01:32:14;9.67;;;4.47;;
4359;SDS011;2193;47.980;7.660;2022-10-22T01:34:41;9.10;;;4.80;;
4359;SDS011;2193;47.980;7.660;2022-10-22T01:37:08;13.07;;;5.53;;
4359;SDS011;2193;47.980;7.660;2022-10-22T01:39:34;9.67;;;5.30;;
4359;SDS011;2193;47.980;7.660;2022-10-22T01:42:00;12.97;;;6.33;;
4359;SDS011;2193;47.980;7.660;2022-10-22T01:44:27;14.10;;;6.53;;
4359;SDS011;2193;47.980;7.660;2022-10-22T01:46:55;17.10;;;6.73;;
4359;SDS011;2193;47.980;7.660;2022-10-22T01:50:09;11.13;;;6.30;;
4359;SDS011;2193;47.980;7.660;2022-10-22T01:52:14;11.90;;;6.90;;
4359;SDS011;2193;47.980;7.660;2022-10-22T01:54:56;9.10;;;5.80;;
4359;SDS011;2193;47.980;7.660;2022-10-22T01:57:40;10.20;;;5.73;;
4359;SDS011;2193;47.980;7.660;2022-10-22T02:00:08;7.93;;;5.60;;
4359;SDS011;2193;47.980;7.660;2022-10-22T02:02:46;12.73;;;6.40;;
4359;SDS011;2193;47.980;7.660;2022-10-22T02:07:40;9.57;;;6.57;;
4359;SDS011;2193;47.980;7.660;2022-10-22T02:10:06;8.60;;;6.67;;
4359;SDS011;2193;47.980;7.660;2022-10-22T02:12:33;8.83;;;5.70;;
4359;SDS011;2193;47.980;7.660;2022-10-22T02:14:59;8.37;;;6.50;;
4359;SDS011;2193;47.980;7.660;2022-10-22T02:17:24;9.60;;;6.10;;
4359;SDS011;2193;47.980;7.660;2022-10-22T02:19:52;10.20;;;6.40;;
4359;SDS011;2193;47.980;7.660;2022-10-22T02:22:18;8.77;;;5.80;;
4359;SDS011;2193;47.980;7.660;2022-10-22T02:24:44;8.83;;;5.90;;
4359;SDS011;2193;47.980;7.660;2022-10-22T02:29:40;7.80;;;5.50;;
4359;SDS011;2193;47.980;7.660;2022-10-22T02:32:07;7.80;;;5.67;;
4359;SDS011;2193;47.980;7.660;2022-10-22T02:34:34;52.47;;;14.87;;
4359;SDS011;2193;47.980;7.660;2022-10-22T02:37:00;29.23;;;9.90;;
4359;SDS011;2193;47.980;7.660;2022-10-22T02:39:26;14.23;;;7.63;;
4359;SDS011;2193;47.980;7.660;2022-10-22T02:41:51;12.67;;;5.80;;
4359;SDS011;2193;47.980;7.660;2022-10-22T02:44:19;10.53;;;6.47;;
4359;SDS011;2193;47.980;7.660;2022-10-22T02:46:45;12.30;;;8.20;;
4359;SDS011;2193;47.980;7.660;2022-10-22T02:49:10;15.40;;;9.40;;
4359;SDS011;2193;47.980;7.660;2022-10-22T02:51:35;13.17;;;8.47;;
4359;SDS011;2193;47.980;7.660;2022-10-22T02:54:00;16.00;;;9.00;;
4359;SDS011;2193;47.980;7.660;2022-10-22T02:56:26;18.03;;;9.73;;
4359;SDS011;2193;47.980;7.660;2022-10-22T02:58:51;17.27;;;9.10;;
4359;SDS011;2193;47.980;7.660;2022-10-22T03:01:16;17.53;;;9.13;;
4359;SDS011;2193;47.980;7.660;2022-10-22T03:03:41;18.03;;;9.57;;
4359;SDS011;2193;47.980;7.660;2022-10-22T03:06:07;18.07;;;9.90;;
4359;SDS011;2193;47.980;7.660;2022-10-22T03:08:32;14.97;;;8.60;;
4359;SDS011;2193;47.980;7.660;2022-10-22T03:10:57;19.63;;;9.10;;
4359;SDS011;2193;47.980;7.660;2022-10-22T03:13:22;17.13;;;10.50;;
4359;SDS011;2193;47.980;7.660;2022-10-22T03:15:48;21.30;;;11.50;;
4359;SDS011;2193;47.980;7.660;2022-10-22T03:18:13;19.60;;;11.80;;
4359;SDS011;2193;47.980;7.660;2022-10-22T03:20:39;23.40;;;11.17;;
4359;SDS011;2193;47.980;7.660;2022-10-22T03:23:04;24.60;;;11.47;;
4359;SDS011;2193;47.980;7.660;2022-10-22T03:25:29;20.90;;;11.60;;
4359;SDS011;2193;47.980;7.660;2022-10-22T03:27:58;24.63;;;12.90;;
4359;SDS011;2193;47.980;7.660;2022-10-22T03:30:26;20.03;;;11.97;;
4359;SDS011;2193;47.980;7.660;2022-10-22T03:32:51;19.77;;;12.47;;
4359;SDS011;2193;47.980;7.660;2022-10-22T03:35:16;28.47;;;13.23;;
4359;SDS011;2193;47.980;7.660;2022-10-22T03:37:41;20.47;;;11.83;;
4359;SDS011;2193;47.980;7.660;2022-10-22T03:40:07;25.30;;;13.13;;
4359;SDS011;2193;47.980;7.660;2022-10-22T03:42:32;27.40;;;13.93;;
4359;SDS011;2193;47.980;7.660;2022-10-22T03:44:57;25.70;;;14.30;;
4359;SDS011;2193;47.980;7.660;2022-10-22T03:47:23;27.20;;;14.67;;
4359;SDS011;2193;47.980;7.660;2022-10-22T03:49:49;24.53;;;13.30;;
4359;SDS011;2193;47.980;7.660;2022-10-22T03:52:14;25.60;;;14.47;;
4359;SDS011;2193;47.980;7.660;2022-10-22T03:54:40;26.13;;;13.10;;
4359;SDS011;2193;47.980;7.660;2022-10-22T03:57:06;31.17;;;14.33;;
4359;SDS011;2193;47.980;7.660;2022-10-22T03:59:38;23.77;;;14.10;;
4359;SDS011;2193;47.980;7.660;2022-10-22T04:02:04;25.93;;;13.97;;
4359;SDS011;2193;47.980;7.660;2022-10-22T04:04:29;30.67;;;15.10;;
4359;SDS011;2193;47.980;7.660;2022-10-22T04:06:55;26.53;;;14.17;;
4359;SDS011;2193;47.980;7.660;2022-10-22T04:09:20;28.47;;;14.30;;
4359;SDS011;2193;47.980;7.660;2022-10-22T04:11:45;25.10;;;15.00;;
4359;SDS011;2193;47.980;7.660;2022-10-22T04:14:11;27.63;;;14.00;;
4359;SDS011;2193;47.980;7.660;2022-10-22T04:16:37;22.10;;;12.10;;
4359;SDS011;2193;47.980;7.660;2022-10-22T04:19:03;22.63;;;11.77;;
4359;SDS011;2193;47.980;7.660;2022-10-22T04:21:28;20.10;;;11.17;;
4359;SDS011;2193;47.980;7.660;2022-10-22T04:23:53;20.93;;;12.20;;
4359;SDS011;2193;47.980;7.660;2022-10-22T04:26:19;22.80;;;12.10;;
4359;SDS011;2193;47.980;7.660;2022-10-22T04:28:45;19.23;;;12.03;;
4359;SDS011;2193;47.980;7.660;2022-10-22T04:31:14;18.93;;;11.63;;
4359;SDS011;2193;47.980;7.660;2022-10-22T04:33:40;24.13;;;13.07;;
4359;SDS011;2193;47.980;7.660;2022-10-22T04:36:09;26.67;;;13.83;;
4359;SDS011;2193;47.980;7.660;2022-10-22T04:38:35;28.20;;;12.60;;
4359;SDS011;2193;47.980;7.660;2022-10-22T04:41:35;24.40;;;13.57;;
4359;SDS011;2193;47.980;7.660;2022-10-22T04:43:53;19.20;;;12.07;;
4359;SDS011;2193;47.980;7.660;2022-10-22T04:46:18;29.63;;;16.57;;
4359;SDS011;2193;47.980;7.660;2022-10-22T04:48:44;23.53;;;14.37;;
4359;SDS011;2193;47.980;7.660;2022-10-22T04:51:10;25.30;;;14.17;;
4359;SDS011;2193;47.980;7.660;2022-10-22T04:53:36;25.27;;;14.23;;
4359;SDS011;2193;47.980;7.660;2022-10-22T04:56:11;27.10;;;14.73;;
4359;SDS011;2193;47.980;7.660;2022-10-22T04:58:37;34.53;;;16.53;;
4359;SDS011;2193;47.980;7.660;2022-10-22T05:01:09;25.50;;;14.63;;
4359;SDS011;2193;47.980;7.660;2022-10-22T05:03:34;26.13;;;14.40;;
4359;SDS011;2193;47.980;7.660;2022-10-22T05:06:00;26.00;;;14.63;;
4359;SDS011;2193;47.980;7.660;2022-10-22T05:08:25;23.13;;;13.57;;
4359;SDS011;2193;47.980;7.660;2022-10-22T05:10:50;29.20;;;14.63;;
4359;SDS011;2193;47.980;7.660;2022-10-22T05:13:15;31.67;;;16.10;;
4359;SDS011;2193;47.980;7.660;2022-10-22T05:15:41;26.10;;;15.47;;
4359;SDS011;2193;47.980;7.660;2022-10-22T05:18:06;28.10;;;15.57;;
4359;SDS011;2193;47.980;7.660;2022-10-22T05:20:31;26.60;;;15.60;;
4359;SDS011;2193;47.980;7.660;2022-10-22T05:22:56;35.13;;;17.90;;
4359;SDS011;2193;47.980;7.660;2022-10-22T05:25:21;32.27;;;17.17;;
4359;SDS011;2193;47.980;7.660;2022-10-22T05:27:50;36.17;;;20.00;;
4359;SDS011;2193;47.980;7.660;2022-10-22T05:30:15;38.40;;;19.50;;
4359;SDS011;2193;47.980;7.660;2022-10-22T05:32:40;43.50;;;20.30;;
4359;SDS011;2193;47.980;7.660;2022-10-22T05:35:05;37.30;;;18.80;;
4359;SDS011;2193;47.980;7.660;2022-10-22T05:37:31;46.87;;;20.20;;
4359;SDS011;2193;47.980;7.660;2022-10-22T05:39:56;43.80;;;20.00;;
4359;SDS011;2193;47.980;7.660;2022-10-22T05:42:21;51.37;;;20.40;;
4359;SDS011;2193;47.980;7.660;2022-10-22T05:44:46;50.43;;;19.77;;
4359;SDS011;2193;47.980;7.660;2022-10-22T05:47:12;52.20;;;19.63;;
4359;SDS011;2193;47.980;7.660;2022-10-22T05:49:37;52.90;;;19.47;;
4359;SDS011;2193;47.980;7.660;2022-10-22T05:52:02;50.03;;;20.17;;
4359;SDS011;2193;47.980;7.660;2022-10-22T05:54:27;50.73;;;20.87;;
4359;SDS011;2193;47.980;7.660;2022-10-22T05:56:53;46.17;;;21.17;;
4359;SDS011;2193;47.980;7.660;2022-10-22T05:59:19;45.43;;;19.90;;
4359;SDS011;2193;47.980;7.660;2022-10-22T06:01:44;45.10;;;19.43;;
4359;SDS011;2193;47.980;7.660;2022-10-22T06:04:10;50.50;;;18.57;;
4359;SDS011;2193;47.980;7.660;2022-10-22T06:06:36;43.43;;;18.90;;
4359;SDS011;2193;47.980;7.660;2022-10-22T06:09:12;47.30;;;18.60;;
4359;SDS011;2193;47.980;7.660;2022-10-22T06:11:38;46.63;;;19.17;;
4359;SDS011;2193;47.980;7.660;2022-10-22T06:14:04;43.20;;;21.07;;
4359;SDS011;2193;47.980;7.660;2022-10-22T06:16:29;39.17;;;19.10;;
4359;SDS011;2193;47.980;7.660;2022-10-22T06:18:54;44.00;;;20.53;;
4359;SDS011;2193;47.980;7.660;2022-10-22T06:21:19;48.40;;;20.70;;
4359;SDS011;2193;47.980;7.660;2022-10-22T06:23:45;45.07;;;20.17;;
4359;SDS011;2193;47.980;7.660;2022-10-22T06:26:10;48.90;;;19.60;;
4359;SDS011;2193;47.980;7.660;2022-10-22T06:28:35;43.70;;;20.37;;
4359;SDS011;2193;47.980;7.660;2022-10-22T06:31:01;52.53;;;21.63;;
4359;SDS011;2193;47.980;7.660;2022-10-22T06:33:27;57.67;;;23.43;;
4359;SDS011;2193;47.980;7.660;2022-10-22T06:35:52;53.53;;;23.70;;
4359;SDS011;2193;47.980;7.660;2022-10-22T06:38:17;55.90;;;23.57;;
4359;SDS011;2193;47.980;7.660;2022-10-22T06:40:42;54.97;;;22.67;;
4359;SDS011;2193;47.980;7.660;2022-10-22T06:43:09;60.50;;;24.83;;
4359;SDS011;2193;47.980;7.660;2022-10-22T06:45:35;49.03;;;22.60;;
4359;SDS011;2193;47.980;7.660;2022-10-22T06:48:00;43.47;;;21.80;;
4359;SDS011;2193;47.980;7.660;2022-10-22T06:50:25;54.87;;;22.77;;
4359;SDS011;2193;47.980;7.660;2022-10-22T06:52:50;55.93;;;23.83;;
4359;SDS011;2193;47.980;7.660;2022-10-22T06:55:15;55.87;;;23.57;;
4359;SDS011;2193;47.980;7.660;2022-10-22T06:57:41;47.43;;;22.13;;
4359;SDS011;2193;47.980;7.660;2022-10-22T07:00:06;51.27;;;23.87;;
4359;SDS011;2193;47.980;7.660;2022-10-22T07:02:31;54.63;;;24.43;;
4359;SDS011;2193;47.980;7.660;2022-10-22T07:04:57;52.03;;;23.03;;
4359;SDS011;2193;47.980;7.660;2022-10-22T07:07:22;49.60;;;23.43;;
4359;SDS011;2193;47.980;7.660;2022-10-22T07:09:47;42.47;;;21.37;;
4359;SDS011;2193;47.980;7.660;2022-10-22T07:12:13;47.03;;;21.83;;
4359;SDS011;2193;47.980;7.660;2022-10-22T07:14:38;43.30;;;20.70;;
4359;SDS011;2193;47.980;7.660;2022-10-22T07:17:03;42.50;;;21.37;;
4359;SDS011;2193;47.980;7.660;2022-10-22T07:19:29;31.80;;;17.90;;
4359;SDS011;2193;47.980;7.660;2022-10-22T07:21:55;34.27;;;18.70;;
4359;SDS011;2193;47.980;7.660;2022-10-22T07:24:20;29.13;;;17.70;;
4359;SDS011;2193;47.980;7.660;2022-10-22T07:26:45;32.20;;;17.23;;
4359;SDS011;2193;47.980;7.660;2022-10-22T07:29:11;26.30;;;15.30;;
4359;SDS011;2193;47.980;7.660;2022-10-22T07:31:36;26.97;;;14.23;;
4359;SDS011;2193;47.980;7.660;2022-10-22T07:34:01;27.70;;;16.37;;
4359;SDS011;2193;47.980;7.660;2022-10-22T07:36:26;30.63;;;16.60;;
4359;SDS011;2193;47.980;7.660;2022-10-22T07:38:52;31.97;;;15.37;;
4359;SDS011;2193;47.980;7.660;2022-10-22T07:41:18;32.33;;;16.87;;
4359;SDS011;2193;47.980;7.660;2022-10-22T07:43:43;29.93;;;16.20;;
4359;SDS011;2193;47.980;7.660;2022-10-22T07:46:08;28.17;;;16.40;;
4359;SDS011;2193;47.980;7.660;2022-10-22T07:48:37;25.23;;;14.90;;
4359;SDS011;2193;47.980;7.660;2022-10-22T07:51:03;27.70;;;14.80;;
4359;SDS011;2193;47.980;7.660;2022-10-22T07:53:28;16.03;;;10.40;;
4359;SDS011;2193;47.980;7.660;2022-10-22T07:55:53;22.50;;;13.60;;
4359;SDS011;2193;47.980;7.660;2022-10-22T07:58:19;19.97;;;12.10;;
4359;SDS011;2193;47.980;7.660;2022-10-22T08:00:44;22.10;;;12.70;;
4359;SDS011;2193;47.980;7.660;2022-10-22T08:03:10;23.53;;;12.47;;
4359;SDS011;2193;47.980;7.660;2022-10-22T08:05:35;18.13;;;12.13;;
4359;SDS011;2193;47.980;7.660;2022-10-22T08:08:00;19.80;;;12.10;;
4359;SDS011;2193;47.980;7.660;2022-10-22T08:10:26;19.97;;;12.60;;
4359;SDS011;2193;47.980;7.660;2022-10-22T08:12:51;16.33;;;11.63;;
4359;SDS011;2193;47.980;7.660;2022-10-22T08:15:16;25.73;;;12.23;;
4359;SDS011;2193;47.980;7.660;2022-10-22T08:17:41;20.03;;;10.27;;
4359;SDS011;2193;47.980;7.660;2022-10-22T08:20:07;16.00;;;10.10;;
4359;SDS011;2193;47.980;7.660;2022-10-22T08:22:32;13.83;;;9.60;;
4359;SDS011;2193;47.980;7.660;2022-10-22T08:24:57;13.67;;;9.57;;
4359;SDS011;2193;47.980;7.660;2022-10-22T08:27:24;14.07;;;9.07;;
4359;SDS011;2193;47.980;7.660;2022-10-22T08:29:49;13.30;;;8.93;;
4359;SDS011;2193;47.980;7.660;2022-10-22T08:32:14;15.03;;;8.30;;
4359;SDS011;2193;47.980;7.660;2022-10-22T08:34:40;10.00;;;6.20;;
4359;SDS011;2193;47.980;7.660;2022-10-22T08:37:05;10.03;;;5.93;;
4359;SDS011;2193;47.980;7.660;2022-10-22T08:39:33;7.63;;;5.10;;
4359;SDS011;2193;47.980;7.660;2022-10-22T08:47:31;7.47;;;6.10;;
4359;SDS011;2193;47.980;7.660;2022-10-22T08:50:00;10.47;;;6.30;;
4359;SDS011;2193;47.980;7.660;2022-10-22T08:52:26;8.27;;;6.00;;
4359;SDS011;2193;47.980;7.660;2022-10-22T09:05:15;4.87;;;3.43;;
4359;SDS011;2193;47.980;7.660;2022-10-22T09:07:42;6.00;;;3.30;;
4359;SDS011;2193;47.980;7.660;2022-10-22T09:10:08;5.80;;;3.07;;
4359;SDS011;2193;47.980;7.660;2022-10-22T09:12:33;9.93;;;3.30;;
4359;SDS011;2193;47.980;7.660;2022-10-22T09:14:58;4.17;;;2.53;;
4359;SDS011;2193;47.980;7.660;2022-10-22T09:27:41;3.70;;;1.50;;
4359;SDS011;2193;47.980;7.660;2022-10-22T09:30:10;2.60;;;1.47;;
4359;SDS011;2193;47.980;7.660;2022-10-22T09:32:37;4.33;;;1.47;;
4359;SDS011;2193;47.980;7.660;2022-10-22T09:35:02;4.13;;;1.50;;
4359;SDS011;2193;47.980;7.660;2022-10-22T09:37:28;4.30;;;1.40;;
4359;SDS011;2193;47.980;7.660;2022-10-22T09:39:55;5.47;;;1.97;;
4359;SDS011;2193;47.980;7.660;2022-10-22T09:42:20;5.13;;;1.53;;
4359;SDS011;2193;47.980;7.660;2022-10-22T09:44:51;4.13;;;1.30;;
4359;SDS011;2193;47.980;7.660;2022-10-22T09:50:43;4.93;;;1.67;;
4359;SDS011;2193;47.980;7.660;2022-10-22T09:52:53;6.10;;;2.00;;
4359;SDS011;2193;47.980;7.660;2022-10-22T09:55:20;3.03;;;1.70;;
4359;SDS011;2193;47.980;7.660;2022-10-22T09:57:51;6.87;;;1.90;;
4359;SDS011;2193;47.980;7.660;2022-10-22T10:00:17;3.53;;;1.80;;
4359;SDS011;2193;47.980;7.660;2022-10-22T10:02:42;8.07;;;1.50;;
4359;SDS011;2193;47.980;7.660;2022-10-22T10:05:11;5.07;;;1.70;;
4359;SDS011;2193;47.980;7.660;2022-10-22T10:07:41;5.40;;;1.77;;
4359;SDS011;2193;47.980;7.660;2022-10-22T10:10:15;4.57;;;1.50;;
4359;SDS011;2193;47.980;7.660;2022-10-22T10:12:43;3.17;;;1.50;;
4359;SDS011;2193;47.980;7.660;2022-10-22T10:17:40;3.27;;;1.63;;
4359;SDS011;2193;47.980;7.660;2022-10-22T10:22:59;5.43;;;1.67;;
4359;SDS011;2193;47.980;7.660;2022-10-22T10:25:31;4.00;;;1.80;;
4359;SDS011;2193;47.980;7.660;2022-10-22T10:28:05;4.07;;;1.60;;
4359;SDS011;2193;47.980;7.660;2022-10-22T10:30:33;4.10;;;1.70;;
4359;SDS011;2193;47.980;7.660;2022-10-22T10:35:36;4.60;;;1.60;;
4359;SDS011;2193;47.980;7.660;2022-10-22T10:40:50;8.07;;;1.90;;
4359;SDS011;2193;47.980;7.660;2022-10-22T10:43:37;2.67;;;1.40;;
4359;SDS011;2193;47.980;7.660;2022-10-22T10:48:55;6.90;;;1.60;;
4359;SDS011;2193;47.980;7.660;2022-10-22T10:54:07;2.77;;;1.60;;
4359;SDS011;2193;47.980;7.660;2022-10-22T11:01:28;3.57;;;1.70;;
4359;SDS011;2193;47.980;7.660;2022-10-22T11:06:23;3.63;;;1.70;;
4359;SDS011;2193;47.980;7.660;2022-10-22T11:09:04;5.73;;;2.13;;
4359;SDS011;2193;47.980;7.660;2022-10-22T11:12:14;5.20;;;2.00;;
4359;SDS011;2193;47.980;7.660;2022-10-22T11:14:49;4.93;;;1.77;;
4359;SDS011;2193;47.980;7.660;2022-10-22T11:17:14;7.90;;;1.70;;
4359;SDS011;2193;47.980;7.660;2022-10-22T11:19:48;7.27;;;2.17;;
4359;SDS011;2193;47.980;7.660;2022-10-22T11:24:55;2.90;;;1.87;;
4359;SDS011;2193;47.980;7.660;2022-10-22T11:27:30;5.40;;;2.00;;
4359;SDS011;2193;47.980;7.660;2022-10-22T11:30:00;8.77;;;1.73;;
4359;SDS011;2193;47.980;7.660;2022-10-22T11:32:26;4.80;;;1.90;;
4359;SDS011;2193;47.980;7.660;2022-10-22T11:34:53;4.10;;;1.83;;
4359;SDS011;2193;47.980;7.660;2022-10-22T11:37:20;6.10;;;2.20;;
4359;SDS011;2193;47.980;7.660;2022-10-22T11:39:48;3.50;;;1.70;;
4359;SDS011;2193;47.980;7.660;2022-10-22T11:42:17;6.77;;;2.13;;
4359;SDS011;2193;47.980;7.660;2022-10-22T11:45:03;2.57;;;1.60;;
4359;SDS011;2193;47.980;7.660;2022-10-22T11:47:33;3.17;;;1.60;;
4359;SDS011;2193;47.980;7.660;2022-10-22T11:54:56;4.70;;;2.27;;
4359;SDS011;2193;47.980;7.660;2022-10-22T11:57:25;3.30;;;1.70;;
4359;SDS011;2193;47.980;7.660;2022-10-22T11:59:53;7.90;;;1.97;;
4359;SDS011;2193;47.980;7.660;2022-10-22T12:02:37;3.40;;;1.60;;
4359;SDS011;2193;47.980;7.660;2022-10-22T12:07:56;3.53;;;1.80;;
4359;SDS011;2193;47.980;7.660;2022-10-22T12:10:29;4.33;;;2.00;;
4359;SDS011;2193;47.980;7.660;2022-10-22T12:13:00;3.57;;;1.73;;
4359;SDS011;2193;47.980;7.660;2022-10-22T12:15:27;5.10;;;1.87;;
4359;SDS011;2193;47.980;7.660;2022-10-22T12:17:57;4.50;;;1.50;;
4359;SDS011;2193;47.980;7.660;2022-10-22T12:20:23;4.83;;;1.70;;
4359;SDS011;2193;47.980;7.660;2022-10-22T12:22:49;2.70;;;1.60;;
4359;SDS011;2193;47.980;7.660;2022-10-22T12:25:23;3.13;;;1.60;;
4359;SDS011;2193;47.980;7.660;2022-10-22T12:27:49;4.60;;;1.87;;
4359;SDS011;2193;47.980;7.660;2022-10-22T12:30:19;3.97;;;1.70;;
4359;SDS011;2193;47.980;7.660;2022-10-22T12:32:46;4.13;;;1.70;;
4359;SDS011;2193;47.980;7.660;2022-10-22T12:35:16;2.03;;;1.67;;
4359;SDS011;2193;47.980;7.660;2022-10-22T12:37:41;4.50;;;1.43;;
4359;SDS011;2193;47.980;7.660;2022-10-22T12:40:28;3.03;;;1.53;;
4359;SDS011;2193;47.980;7.660;2022-10-22T12:42:56;4.40;;;1.87;;
4359;SDS011;2193;47.980;7.660;2022-10-22T12:45:22;2.60;;;1.43;;
4359;SDS011;2193;47.980;7.660;2022-10-22T12:47:50;6.13;;;1.93;;
4359;SDS011;2193;47.980;7.660;2022-10-22T12:50:17;5.27;;;1.83;;
4359;SDS011;2193;47.980;7.660;2022-10-22T12:52:42;5.27;;;1.73;;
4359;SDS011;2193;47.980;7.660;2022-10-22T12:55:08;7.03;;;2.00;;
4359;SDS011;2193;47.980;7.660;2022-10-22T12:57:34;3.40;;;1.70;;
4359;SDS011;2193;47.980;7.660;2022-10-22T12:59:59;1.70;;;1.60;;
4359;SDS011;2193;47.980;7.660;2022-10-22T13:02:25;5.20;;;1.60;;
4359;SDS011;2193;47.980;7.660;2022-10-22T13:07:39;4.20;;;2.00;;
4359;SDS011;2193;47.980;7.660;2022-10-22T13:10:16;4.73;;;1.50;;
4359;SDS011;2193;47.980;7.660;2022-10-22T13:12:43;2.83;;;1.60;;
4359;SDS011;2193;47.980;7.660;2022-10-22T13:20:26;2.90;;;1.60;;
4359;SDS011;2193;47.980;7.660;2022-10-22T13:22:55;2.73;;;1.30;;
4359;SDS011;2193;47.980;7.660;2022-10-22T13:25:30;2.67;;;1.20;;
4359;SDS011;2193;47.980;7.660;2022-10-22T13:27:56;3.93;;;1.70;;
4359;SDS011;2193;47.980;7.660;2022-10-22T13:30:23;5.80;;;1.53;;
4359;SDS011;2193;47.980;7.660;2022-10-22T13:32:56;5.07;;;1.77;;
4359;SDS011;2193;47.980;7.660;2022-10-22T13:35:24;2.53;;;1.67;;
4359;SDS011;2193;47.980;7.660;2022-10-22T13:37:50;2.27;;;1.30;;
4359;SDS011;2193;47.980;7.660;2022-10-22T13:40:15;4.43;;;1.70;;
4359;SDS011;2193;47.980;7.660;2022-10-22T13:42:40;4.73;;;1.87;;
4359;SDS011;2193;47.980;7.660;2022-10-22T13:45:06;5.10;;;1.90;;
4359;SDS011;2193;47.980;7.660;2022-10-22T13:47:31;11.37;;;1.43;;
4359;SDS011;2193;47.980;7.660;2022-10-22T13:49:57;1.97;;;1.40;;
4359;SDS011;2193;47.980;7.660;2022-10-22T13:52:27;3.50;;;1.67;;
4359;SDS011;2193;47.980;7.660;2022-10-22T13:54:53;4.80;;;1.70;;
4359;SDS011;2193;47.980;7.660;2022-10-22T13:57:18;3.67;;;1.50;;
4359;SDS011;2193;47.980;7.660;2022-10-22T13:59:44;2.00;;;1.40;;
4359;SDS011;2193;47.980;7.660;2022-10-22T14:02:11;5.90;;;1.77;;
4359;SDS011;2193;47.980;7.660;2022-10-22T14:04:38;4.43;;;1.50;;
4359;SDS011;2193;47.980;7.660;2022-10-22T14:07:07;3.33;;;1.60;;
4359;SDS011;2193;47.980;7.660;2022-10-22T14:09:32;4.20;;;1.87;;
4359;SDS011;2193;47.980;7.660;2022-10-22T14:11:57;4.57;;;1.87;;
4359;SDS011;2193;47.980;7.660;2022-10-22T14:14:23;6.93;;;1.70;;
4359;SDS011;2193;47.980;7.660;2022-10-22T14:16:48;2.93;;;1.60;;
4359;SDS011;2193;47.980;7.660;2022-10-22T14:19:14;2.67;;;1.70;;
4359;SDS011;2193;47.980;7.660;2022-10-22T14:21:40;2.13;;;1.27;;
4359;SDS011;2193;47.980;7.660;2022-10-22T14:24:07;3.10;;;1.43;;
4359;SDS011;2193;47.980;7.660;2022-10-22T14:26:33;5.30;;;1.53;;
4359;SDS011;2193;47.980;7.660;2022-10-22T14:28:59;1.90;;;1.43;;
4359;SDS011;2193;47.980;7.660;2022-10-22T14:31:24;4.17;;;1.87;;
4359;SDS011;2193;47.980;7.660;2022-10-22T14:33:50;3.20;;;1.60;;
4359;SDS011;2193;47.980;7.660;2022-10-22T14:36:16;1.57;;;1.37;;
4359;SDS011;2193;47.980;7.660;2022-10-22T14:38:42;3.60;;;1.63;;
4359;SDS011;2193;47.980;7.660;2022-10-22T14:41:20;3.90;;;1.47;;
4359;SDS011;2193;47.980;7.660;2022-10-22T14:43:46;2.70;;;1.50;;
4359;SDS011;2193;47.980;7.660;2022-10-22T14:46:11;3.70;;;1.70;;
4359;SDS011;2193;47.980;7.660;2022-10-22T14:48:37;3.90;;;1.67;;
4359;SDS011;2193;47.980;7.660;2022-10-22T14:51:02;3.00;;;1.27;;
4359;SDS011;2193;47.980;7.660;2022-10-22T14:53:27;4.10;;;1.50;;
4359;SDS011;2193;47.980;7.660;2022-10-22T14:55:52;3.13;;;1.60;;
4359;SDS011;2193;47.980;7.660;2022-10-22T14:58:21;2.00;;;1.30;;
4359;SDS011;2193;47.980;7.660;2022-10-22T15:00:46;2.73;;;1.50;;
4359;SDS011;2193;47.980;7.660;2022-10-22T15:03:12;4.23;;;1.50;;
4359;SDS011;2193;47.980;7.660;2022-10-22T15:05:40;2.63;;;1.47;;
4359;SDS011;2193;47.980;7.660;2022-10-22T15:08:07;3.93;;;1.20;;
4359;SDS011;2193;47.980;7.660;2022-10-22T15:10:33;2.57;;;1.37;;
4359;SDS011;2193;47.980;7.660;2022-10-22T15:12:58;3.90;;;1.53;;
4359;SDS011;2193;47.980;7.660;2022-10-22T15:15:23;3.47;;;1.23;;
4359;SDS011;2193;47.980;7.660;2022-10-22T15:17:48;2.10;;;1.50;;
4359;SDS011;2193;47.980;7.660;2022-10-22T15:20:14;2.30;;;1.43;;
4359;SDS011;2193;47.980;7.660;2022-10-22T15:22:39;3.70;;;1.40;;
4359;SDS011;2193;47.980;7.660;2022-10-22T15:25:05;3.30;;;1.20;;
4359;SDS011;2193;47.980;7.660;2022-10-22T15:27:31;2.87;;;1.10;;
4359;SDS011;2193;47.980;7.660;2022-10-22T15:29:56;2.37;;;1.20;;
4359;SDS011;2193;47.980;7.660;2022-10-22T15:32:23;2.07;;;1.57;;
4359;SDS011;2193;47.980;7.660;2022-10-22T15:34:48;4.60;;;1.43;;
4359;SDS011;2193;47.980;7.660;2022-10-22T15:37:16;6.63;;;1.60;;
4359;SDS011;2193;47.980;7.660;2022-10-22T15:39:41;1.40;;;1.20;;
4359;SDS011;2193;47.980;7.660;2022-10-22T15:42:07;4.53;;;1.47;;
4359;SDS011;2193;47.980;7.660;2022-10-22T15:44:33;5.07;;;1.77;;
4359;SDS011;2193;47.980;7.660;2022-10-22T15:46:58;4.37;;;1.90;;
4359;SDS011;2193;47.980;7.660;2022-10-22T15:49:25;7.17;;;1.80;;
4359;SDS011;2193;47.980;7.660;2022-10-22T15:51:50;5.60;;;1.50;;
4359;SDS011;2193;47.980;7.660;2022-10-22T15:54:17;3.47;;;1.43;;
4359;SDS011;2193;47.980;7.660;2022-10-22T15:56:42;3.50;;;1.60;;
4359;SDS011;2193;47.980;7.660;2022-10-22T15:59:11;3.03;;;1.63;;
4359;SDS011;2193;47.980;7.660;2022-10-22T16:01:36;4.27;;;1.90;;
4359;SDS011;2193;47.980;7.660;2022-10-22T16:04:02;3.13;;;1.70;;
4359;SDS011;2193;47.980;7.660;2022-10-22T16:06:34;5.00;;;1.90;;
4359;SDS011;2193;47.980;7.660;2022-10-22T16:09:02;6.73;;;1.60;;
4359;SDS011;2193;47.980;7.660;2022-10-22T16:11:27;2.90;;;1.70;;
4359;SDS011;2193;47.980;7.660;2022-10-22T16:13:53;8.40;;;1.73;;
4359;SDS011;2193;47.980;7.660;2022-10-22T16:16:20;4.83;;;2.10;;
4359;SDS011;2193;47.980;7.660;2022-10-22T16:18:45;10.83;;;2.50;;
4359;SDS011;2193;47.980;7.660;2022-10-22T16:21:11;8.87;;;2.83;;
4359;SDS011;2193;47.980;7.660;2022-10-22T16:23:37;7.20;;;2.53;;
4359;SDS011;2193;47.980;7.660;2022-10-22T16:26:02;4.80;;;2.77;;
4359;SDS011;2193;47.980;7.660;2022-10-22T16:28:28;4.77;;;2.90;;
4359;SDS011;2193;47.980;7.660;2022-10-22T16:30:53;7.30;;;3.50;;